• Join FlightAware (Why Join?)
  • Login
  • US Flag 
10:39AM EST


 

Airport Tracker/Info


-or-


 

Live Flight TrackerFlight Track Log ✈ RBY709 ✈ 14-Dec-2013 ✈ KGPT - KPIE

Flight Track Log - Related Links

Times and Time Zones

All times are in EST time to prevent confusion due to time zone crossing. See the RBY709 flight status page for this flight to view local times or setup timezone preferences in your user account.

Time Position Orientation Groundspeed Altitude Reporting Facility
EST Latitude Longitude Course Direction KTS MPH feet Rate Location/Type
10:02AM 30.3831 -88.9836 113° Southeast 287 330 2,600  Level Houston Center
10:03AM 30.4242 -88.9078 58° Northeast 291 335 5,700 3,060 Climbing Houston Center
10:04AM 30.4742 -88.8250 55° Northeast 307 353 8,900 2,820 Climbing Houston Center
10:05AM 30.5367 -88.7111 57° Northeast 345 397 11,600 2,700 Climbing Houston Center
10:06AM 30.5931 -88.6061 58° Northeast 378 435 14,500 2,700 Climbing Houston Center
10:07AM 30.1988 -88.4929 113° Southeast  Level Estimated
10:07AM 30.6517 -88.4972 58° Northeast 395 455 17,200  Level Houston Center
10:08AM 30.1568 -88.3777 113° Southeast  Level Estimated
10:08AM 30.7117 -88.3867 58° Northeast 405 466 19,300  Level Houston Center
10:09AM 30.7356 -88.2556 78° East 421 484 21,000 1,560 Climbing Houston Center
10:11AM 30.7464 -88.1133 85° East 445 512 22,500 1,500 Climbing Houston Center
10:12AM 30.7556 -87.9494 86° East 470 541 24,100 1,500 Climbing Houston Center
10:13AM 30.7644 -87.7906 86° East 490 564 25,600 1,620 Climbing Houston Center
10:14AM 30.7750 -87.6108 86° East 504 580 27,500 1,620 Climbing Houston Center
10:15AM 30.7844 -87.4406 86° East 496 571 28,900 1,320 Climbing Jacksonville Center
10:16AM 30.7925 -87.2719 87° East 508 585 30,200 1,260 Climbing Jacksonville Center
10:17AM 30.8044 -87.1008 85° East 521 600 31,500 1,320 Climbing Jacksonville Center
10:18AM 30.8119 -86.9317 87° East 526 605 32,900 1,200 Climbing Jacksonville Center
10:19AM 30.8258 -86.7558 85° East 531 611 34,000 1,020 Climbing Jacksonville Center
10:20AM 30.8178 -86.6056 94° East 531 611 35,000 480 Climbing Jacksonville Center
10:21AM 30.7975 -86.4356 98° East 531 611 35,000  Level Jacksonville Center
10:22AM 30.7792 -86.2681 97° East 531 611 35,000  Level Jacksonville Center
10:23AM 30.7606 -86.1006 97° East 526 605 35,000  Level Jacksonville Center
10:24AM 30.7400 -85.9186 97° East 526 605 35,000  Level Jacksonville Center
10:25AM 30.7208 -85.7489 97° East 526 605 35,000  Level Jacksonville Center
10:26AM 30.6997 -85.5792 98° East 526 605 35,000  Level Jacksonville Center
10:27AM 30.6800 -85.4119 98° East 521 600 35,000  Level Jacksonville Center
10:28AM 30.6603 -85.2422 98° East 526 605 35,000  Level Jacksonville Center
10:29AM 30.6425 -85.0778 97° East 521 600 35,000  Level Jacksonville Center
10:30AM 30.6200 -84.9106 99° East 521 600 35,000  Level Jacksonville Center
10:31AM 30.5997 -84.7411 98° East 526 605 35,000  Level Jacksonville Center
10:32AM 30.5811 -84.5769 97° East 526 605 35,000  Level Jacksonville Center
10:33AM 30.5539 -84.4147 101° East 520 598 35,000 -60 Level Jacksonville Center
10:34AM 30.4611 -84.3119 136° Southeast 451 519 34,900  Descending Jacksonville Center
10:35AM 30.3492 -84.2381 150° Southeast 435 501 35,000  Climbing Jacksonville Center
10:36AM 30.2433 -84.1694 151° Southeast 441 507 35,000  Level Jacksonville Center
10:37AM 30.1314 -84.0983 151° Southeast 446 513 35,000  Level Jacksonville Center
10:38AM 30.0214 -84.0272 151° Southeast 451 519 35,000  Level Jacksonville Center
10:39AM 29.9114 -83.9564 151° Southeast 456 525 35,000  Level Jacksonville Center
10:40AM 29.8033 -83.8836 150° Southeast 456 525 35,000  Level Jacksonville Center
10:41AM 29.6933 -83.8156 152° Southeast 451 519 35,000  Level Jacksonville Center
10:42AM 29.5811 -83.7428 151° Southeast 456 525 35,000 -420 Level Jacksonville Center
10:43AM 29.4728 -83.6703 150° Southeast 456 525 34,200 -2,040 Descending Jacksonville Center
10:44AM 29.3731 -83.6050 150° Southeast 456 525 31,000 -3,300 Descending Jacksonville Center
10:45AM 29.2608 -83.5353 152° Southeast 456 525 27,700 -2,700 Descending Jacksonville Center
10:46AM 29.1525 -83.4656 151° Southeast 451 519 25,600 -1,980 Descending Jacksonville Center
10:47AM 29.0464 -83.4008 152° Southeast 445 512 23,800 -1,800 Descending Jacksonville Center
10:48AM 28.9400 -83.3317 150° Southeast 445 512 22,000 -1,800 Descending Jacksonville Center
10:49AM 28.8422 -83.2669 150° Southeast 431 496 20,200 -1,740 Descending Jacksonville Center
10:50AM 28.6667 -83.1667 153° Southeast 391 450 17,400 -1,680 Descending Tampa TRACON
10:51AM 28.5833 -83.1000 145° Southeast 356 410 15,800 -1,620 Descending Tampa TRACON
10:52AM 28.5000 -83.0500 152° Southeast 321 369 14,200 -1,740 Descending Tampa TRACON
10:53AM 28.4333 -83.0167 156° South 300 345 12,500 -1,740 Descending Tampa TRACON
10:54AM 28.3667 -82.9667 147° Southeast 284 327 11,100 -1,680 Descending Tampa TRACON
10:55AM 28.2833 -82.9333 161° South 280 322 9,200 -1,680 Descending Tampa TRACON
10:56AM 28.2167 -82.9000 156° South 280 322 7,600 -1,500 Descending Tampa TRACON
10:57AM 28.1500 -82.8167 132° Southeast 267 307 6,000 -1,440 Descending Tampa TRACON
10:58AM 28.1167 -82.7667 127° Southeast 250 288 4,600 -1,440 Descending Tampa TRACON
10:59AM 28.0667 -82.7167 139° Southeast 221 254 3,300 -1,440 Descending Tampa TRACON
11:00AM 28.0167 -82.6667 139° Southeast 204 235 1,600 -1,200 Descending Tampa TRACON
11:01AM 27.9833 -82.6667 180° South 149 171 1,000 -600 Descending Tampa TRACON
11:02AM 27.9500 -82.7000 221° Southwest 121 139 600 -480 Descending Tampa TRACON
11:04AM 27.9100 -82.6875 190° South  Level Estimated
11:11AM 27.9100 -82.6875 190° South  Level Estimated
11:12AM 27.9100 -82.6875 190° South  Level Estimated